createdAt,value
2018-07-03T00:01:45.699Z,1.00
2018-07-03T00:04:14.522Z,1.10
2018-07-03T00:06:43.298Z,1.10
2018-07-03T00:09:12.105Z,0.90
2018-07-03T00:11:40.840Z,1.03
2018-07-03T00:14:10.555Z,0.70
2018-07-03T00:16:44.668Z,1.10
2018-07-03T00:19:13.426Z,0.90
2018-07-03T00:21:42.195Z,1.00
2018-07-03T00:24:11.092Z,0.87
2018-07-03T00:26:39.964Z,1.10
2018-07-03T00:29:08.493Z,1.00
2018-07-03T00:31:37.167Z,0.90
2018-07-03T00:34:06.081Z,0.90
2018-07-03T00:36:35.024Z,0.80
2018-07-03T00:39:05.635Z,1.03
2018-07-03T00:41:34.391Z,1.13
2018-07-03T00:44:03.147Z,0.80
2018-07-03T00:46:31.934Z,0.77
2018-07-03T00:49:00.723Z,0.80
2018-07-03T00:51:29.463Z,0.90
2018-07-03T00:53:58.256Z,1.10
2018-07-03T00:56:27.044Z,0.90
2018-07-03T00:58:56.724Z,0.90
2018-07-03T01:01:25.481Z,0.83
2018-07-03T01:03:54.227Z,0.90
2018-07-03T01:06:23.006Z,0.90
2018-07-03T01:08:51.949Z,0.80
2018-07-03T01:11:20.736Z,0.87
2018-07-03T01:13:49.499Z,0.80
2018-07-03T01:16:18.276Z,1.00
2018-07-03T01:18:47.151Z,0.80
2018-07-03T01:21:15.923Z,0.93
2018-07-03T01:23:44.903Z,1.13
2018-07-03T01:26:13.724Z,0.80
2018-07-03T01:28:42.526Z,0.80
2018-07-03T01:31:11.268Z,1.20
2018-07-03T01:33:40.028Z,0.77
2018-07-03T01:36:08.997Z,0.90
2018-07-03T01:38:37.884Z,1.03
2018-07-03T01:41:06.676Z,0.90
2018-07-03T01:43:36.463Z,0.93
2018-07-03T01:46:05.256Z,0.90
2018-07-03T01:48:34.028Z,1.10
2018-07-03T01:51:02.796Z,1.00
2018-07-03T01:53:31.565Z,0.90
2018-07-03T01:56:00.364Z,0.90
2018-07-03T01:58:29.221Z,1.00
2018-07-03T02:00:57.988Z,0.90
2018-07-03T02:03:26.747Z,0.90
2018-07-03T02:05:55.540Z,1.00
2018-07-03T02:08:24.315Z,0.80
2018-07-03T02:10:53.083Z,0.93
2018-07-03T02:13:21.844Z,1.00
2018-07-03T02:15:50.643Z,0.93
2018-07-03T02:18:19.411Z,1.03
2018-07-03T02:20:48.191Z,1.00
2018-07-03T02:23:16.967Z,1.07
2018-07-03T02:25:45.727Z,0.87
2018-07-03T02:28:14.472Z,0.90
2018-07-03T02:30:43.347Z,1.30
2018-07-03T02:33:12.227Z,1.00
2018-07-03T02:35:40.980Z,1.00
2018-07-03T02:38:09.736Z,0.93
2018-07-03T02:40:38.624Z,0.93
2018-07-03T02:43:07.387Z,1.20
2018-07-03T02:45:36.164Z,1.00
2018-07-03T02:48:04.993Z,0.77
2018-07-03T02:50:33.775Z,0.90
2018-07-03T02:53:02.536Z,0.90
2018-07-03T02:55:31.318Z,0.90
2018-07-03T02:58:00.133Z,0.80
2018-07-03T03:00:28.929Z,1.17
2018-07-03T03:02:57.707Z,0.80
2018-07-03T03:05:26.468Z,1.00
2018-07-03T03:07:55.904Z,1.00
2018-07-03T03:10:24.624Z,1.00
2018-07-03T03:12:53.416Z,0.80
2018-07-03T03:15:22.196Z,1.07
2018-07-03T03:17:50.971Z,1.00
2018-07-03T03:20:19.720Z,0.83
2018-07-03T03:22:48.511Z,1.10
2018-07-03T03:25:17.485Z,1.20
2018-07-03T03:27:46.192Z,1.10
2018-07-03T03:30:14.948Z,1.30
2018-07-03T03:32:43.827Z,1.00
2018-07-03T03:35:12.628Z,1.10
2018-07-03T03:37:41.734Z,1.17
2018-07-03T03:40:10.532Z,1.00
2018-07-03T03:42:39.312Z,0.87
2018-07-03T03:45:08.097Z,1.00
2018-07-03T03:47:36.917Z,1.00
2018-07-03T03:50:05.711Z,1.10
2018-07-03T03:52:34.508Z,1.00
2018-07-03T03:55:03.272Z,1.17
2018-07-03T03:57:32.035Z,1.00
2018-07-03T04:00:00.816Z,1.57
2018-07-03T04:02:29.594Z,1.30
2018-07-03T04:04:58.328Z,1.00
2018-07-03T04:07:27.100Z,0.83
2018-07-03T04:09:55.897Z,1.00
2018-07-03T04:12:24.696Z,0.90
2018-07-03T04:14:53.437Z,1.10
2018-07-03T04:17:22.340Z,1.20
2018-07-03T04:19:51.088Z,1.13
2018-07-03T04:22:19.887Z,1.20
2018-07-03T04:24:48.631Z,1.30
2018-07-03T04:27:17.409Z,1.03
2018-07-03T04:29:46.351Z,1.60
2018-07-03T04:32:15.104Z,1.40
2018-07-03T04:34:43.869Z,2.43
2018-07-03T04:37:12.604Z,1.20
2018-07-03T04:39:41.485Z,1.30
2018-07-03T04:42:10.248Z,1.07
2018-07-03T04:44:38.986Z,1.30
2018-07-03T04:47:07.756Z,1.60
2018-07-03T04:49:36.513Z,1.30
2018-07-03T04:52:05.309Z,1.00
2018-07-03T04:54:34.070Z,1.20
2018-07-03T04:57:02.848Z,1.60
2018-07-03T04:59:31.634Z,1.50
2018-07-03T05:02:00.458Z,1.20
2018-07-03T05:04:29.229Z,1.00
2018-07-03T05:06:58.040Z,1.20
2018-07-03T05:09:26.839Z,1.37
2018-07-03T05:11:55.711Z,1.73
2018-07-03T05:14:24.468Z,1.10
2018-07-03T05:16:57.096Z,1.20
2018-07-03T05:19:26.687Z,1.30
2018-07-03T05:21:55.544Z,1.30
2018-07-03T05:24:24.539Z,1.50
2018-07-03T05:26:53.947Z,1.20
2018-07-03T05:29:22.735Z,1.40
2018-07-03T05:31:51.619Z,1.20
2018-07-03T05:34:20.372Z,1.20
2018-07-03T05:36:49.160Z,1.20
2018-07-03T05:39:17.915Z,1.30
2018-07-03T05:41:46.661Z,1.23
2018-07-03T05:44:15.441Z,1.33
2018-07-03T05:46:44.224Z,1.20
2018-07-03T05:49:12.999Z,1.00
2018-07-03T05:51:41.755Z,1.30
2018-07-03T05:54:10.527Z,1.00
2018-07-03T05:56:39.360Z,1.00
2018-07-03T05:59:08.326Z,1.20
2018-07-03T06:01:37.055Z,1.30
2018-07-03T06:04:05.984Z,1.10
2018-07-03T06:06:34.736Z,1.40
2018-07-03T06:09:03.762Z,1.00
2018-07-03T06:11:32.511Z,1.03
2018-07-03T06:14:01.275Z,1.20
2018-07-03T06:16:30.134Z,1.30
2018-07-03T06:18:58.898Z,1.60
2018-07-03T06:21:27.672Z,1.40
2018-07-03T06:23:56.422Z,1.17
2018-07-03T06:26:25.191Z,1.50
2018-07-03T06:28:54.056Z,1.30
2018-07-03T06:31:22.748Z,1.43
2018-07-03T06:33:51.497Z,1.80
2018-07-03T06:36:20.260Z,1.00
2018-07-03T06:38:49.016Z,1.00
2018-07-03T06:41:17.943Z,1.10
2018-07-03T06:43:46.532Z,1.20
2018-07-03T06:46:15.308Z,1.27
2018-07-03T06:48:44.147Z,1.00
2018-07-03T06:51:12.911Z,0.83
2018-07-03T06:53:41.718Z,0.90
2018-07-03T06:56:10.484Z,0.93
2018-07-03T06:58:39.550Z,1.40
2018-07-03T07:01:08.296Z,1.13
2018-07-03T07:03:37.056Z,1.30
2018-07-03T07:06:05.887Z,1.10
2018-07-03T07:08:34.706Z,1.00
2018-07-03T07:11:03.419Z,1.13
2018-07-03T07:13:32.254Z,1.00
2018-07-03T07:16:01.004Z,1.10
2018-07-03T07:18:29.784Z,1.20
2018-07-03T07:20:58.519Z,1.00
2018-07-03T07:23:27.275Z,1.20
2018-07-03T07:25:56.029Z,1.00
2018-07-03T07:28:24.778Z,0.90
2018-07-03T07:30:53.558Z,0.83
2018-07-03T07:33:22.325Z,1.00
2018-07-03T07:35:51.190Z,1.00
2018-07-03T07:38:19.918Z,1.00
2018-07-03T07:40:48.708Z,0.90
2018-07-03T07:43:17.475Z,1.10
2018-07-03T07:45:46.224Z,1.20
2018-07-03T07:48:14.981Z,0.77
2018-07-03T07:50:43.815Z,1.00
2018-07-03T07:53:12.571Z,0.90
2018-07-03T07:55:41.344Z,0.90
2018-07-03T07:58:10.084Z,1.03
2018-07-03T08:00:38.912Z,0.80
2018-07-03T08:03:07.656Z,0.80
2018-07-03T08:05:36.452Z,0.80
2018-07-03T08:08:05.617Z,0.90
2018-07-03T08:10:34.398Z,0.90
2018-07-03T08:13:03.160Z,0.83
2018-07-03T08:15:31.932Z,0.90
2018-07-03T08:18:00.711Z,1.10
2018-07-03T08:20:29.500Z,1.00
2018-07-03T08:22:58.272Z,0.80
2018-07-03T08:25:27.028Z,0.93
2018-07-03T08:27:55.780Z,0.90
2018-07-03T08:30:24.540Z,0.90
2018-07-03T08:32:53.292Z,1.00
2018-07-03T08:35:22.055Z,0.90
2018-07-03T08:37:50.916Z,1.00
2018-07-03T08:40:19.655Z,1.17
2018-07-03T08:42:48.470Z,1.03
2018-07-03T08:45:16.967Z,0.90
2018-07-03T08:47:45.620Z,1.10
2018-07-03T08:50:14.377Z,1.10
2018-07-03T08:52:43.216Z,0.90
2018-07-03T08:55:12.068Z,0.83
2018-07-03T08:57:40.897Z,0.80
2018-07-03T09:00:09.735Z,1.00
2018-07-03T09:02:38.483Z,1.30
2018-07-03T09:05:07.297Z,1.33
2018-07-03T09:07:35.815Z,0.80
2018-07-03T09:10:04.508Z,1.00
2018-07-03T09:12:33.319Z,1.00
2018-07-03T09:15:02.075Z,0.97
2018-07-03T09:17:31.419Z,0.80
2018-07-03T09:20:01.344Z,0.70
2018-07-03T09:22:30.809Z,0.93
2018-07-03T09:24:59.556Z,1.17
2018-07-03T09:27:28.468Z,1.00
2018-07-03T09:29:57.250Z,1.00
2018-07-03T09:32:26.016Z,1.23
2018-07-03T09:34:55.184Z,0.90
2018-07-03T09:37:23.942Z,0.80
2018-07-03T09:39:52.711Z,0.90
2018-07-03T09:42:21.487Z,0.80
2018-07-03T09:44:50.237Z,1.00
2018-07-03T09:47:19.004Z,1.10
2018-07-03T09:49:47.829Z,1.20
2018-07-03T09:52:16.583Z,1.10
2018-07-03T09:54:45.363Z,1.00
2018-07-03T09:57:14.104Z,0.90
2018-07-03T09:59:42.873Z,1.13
2018-07-03T10:02:11.651Z,0.93
2018-07-03T10:04:40.411Z,1.00
2018-07-03T10:07:09.207Z,0.90
2018-07-03T10:09:38.166Z,0.83
2018-07-03T10:12:06.932Z,1.20
2018-07-03T10:14:35.697Z,0.97
2018-07-03T10:17:04.487Z,1.00
2018-07-03T10:19:33.317Z,0.90
2018-07-03T10:22:02.092Z,1.00
2018-07-03T10:24:30.889Z,0.90
2018-07-03T10:26:59.644Z,1.40
2018-07-03T10:29:28.403Z,1.00
2018-07-03T10:31:57.175Z,1.40
2018-07-03T10:34:25.912Z,1.20
2018-07-03T10:36:54.684Z,1.10
2018-07-03T10:39:23.451Z,1.13
2018-07-03T10:41:52.244Z,1.10
2018-07-03T10:44:21.104Z,1.27
2018-07-03T10:46:49.887Z,1.20
2018-07-03T10:49:18.666Z,1.00
2018-07-03T10:51:47.423Z,1.17
2018-07-03T10:54:16.172Z,1.20
2018-07-03T10:56:45.204Z,1.13
2018-07-03T10:59:13.960Z,1.20
2018-07-03T11:01:42.720Z,1.30
2018-07-03T11:04:11.471Z,1.70
2018-07-03T11:06:40.292Z,1.10
2018-07-03T11:09:10.464Z,1.20
2018-07-03T11:11:39.262Z,1.50
2018-07-03T11:14:08.292Z,1.17
2018-07-03T11:16:36.996Z,1.30
2018-07-03T11:19:05.756Z,1.30
2018-07-03T11:21:34.520Z,1.20
2018-07-03T11:24:03.264Z,1.27
2018-07-03T11:26:32.188Z,1.40
2018-07-03T11:29:00.940Z,1.33
2018-07-03T11:31:29.685Z,1.80
2018-07-03T11:33:58.463Z,2.97
2018-07-03T11:36:27.252Z,2.47
2018-07-03T11:38:56.032Z,2.60
2018-07-03T11:41:24.974Z,2.37
2018-07-03T11:43:53.770Z,2.45
2018-07-03T11:46:22.769Z,2.40
2018-07-03T11:48:51.709Z,2.60
2018-07-03T11:51:20.496Z,2.40
2018-07-03T11:53:49.295Z,2.70
2018-07-03T11:56:17.870Z,2.50
2018-07-03T11:58:46.579Z,2.90
2018-07-03T12:01:15.387Z,2.27
2018-07-03T12:03:44.226Z,2.30
2018-07-03T12:06:12.998Z,2.83
2018-07-03T12:08:41.788Z,2.33
2018-07-03T12:11:10.575Z,2.47
2018-07-03T12:13:39.359Z,2.30
2018-07-03T12:16:08.153Z,2.53
2018-07-03T12:18:42.464Z,2.57
2018-07-03T12:21:11.268Z,2.30
2018-07-03T12:23:40.061Z,2.70
2018-07-03T12:26:08.960Z,2.47
2018-07-03T12:28:37.734Z,2.50
2018-07-03T12:31:06.520Z,2.72
2018-07-03T12:33:35.397Z,2.77
2018-07-03T12:36:04.901Z,2.50
2018-07-03T12:38:33.728Z,2.50
2018-07-03T12:41:02.508Z,2.27
2018-07-03T12:43:31.319Z,2.10
2018-07-03T12:46:01.855Z,2.05
2018-07-03T12:48:32.053Z,2.20
2018-07-03T12:51:00.881Z,2.15
2018-07-03T12:53:29.800Z,2.45
2018-07-03T12:55:58.650Z,2.42
2018-07-03T12:58:27.413Z,2.10
2018-07-03T13:00:56.240Z,2.55
2018-07-03T13:03:25.049Z,2.42
2018-07-03T13:05:53.941Z,2.25
2018-07-03T13:08:22.717Z,2.60
2018-07-03T13:10:51.596Z,2.47
2018-07-03T13:13:20.384Z,2.00
2018-07-03T13:15:49.203Z,2.47
2018-07-03T13:18:20.286Z,2.40
2018-07-03T13:20:50.048Z,2.10
2018-07-03T13:23:19.041Z,2.50
2018-07-03T13:25:47.810Z,2.58
2018-07-03T13:28:16.708Z,2.30
2018-07-03T13:30:45.765Z,2.30
2018-07-03T13:33:14.567Z,2.40
2018-07-03T13:35:43.466Z,1.87
2018-07-03T13:38:12.387Z,2.25
2018-07-03T13:40:41.164Z,1.98
2018-07-03T13:43:09.984Z,2.20
2018-07-03T13:45:38.868Z,2.15
2018-07-03T13:48:07.771Z,1.98
2018-07-03T13:50:36.567Z,1.80
2018-07-03T13:53:05.337Z,2.08
2018-07-03T13:55:34.166Z,2.17
2018-07-03T13:58:02.889Z,1.90
2018-07-03T14:00:31.680Z,2.05
2018-07-03T14:03:00.444Z,2.25
2018-07-03T14:05:29.221Z,2.30
2018-07-03T14:07:58.427Z,2.10
2018-07-03T14:10:27.212Z,2.15
2018-07-03T14:12:55.984Z,2.20
2018-07-03T14:15:24.752Z,2.00
2018-07-03T14:17:53.552Z,2.15
2018-07-03T14:20:22.327Z,2.05
2018-07-03T14:22:51.144Z,2.10
2018-07-03T14:25:20.020Z,2.02
2018-07-03T14:27:48.780Z,2.10
2018-07-03T14:30:17.581Z,2.10
2018-07-03T14:32:46.112Z,2.08
2018-07-03T14:35:14.864Z,2.42
2018-07-03T14:37:43.792Z,2.45
2018-07-03T14:40:12.644Z,2.10
2018-07-03T14:42:41.467Z,2.17
2018-07-03T14:45:10.251Z,2.30
2018-07-03T14:47:39.016Z,2.15
2018-07-03T14:50:07.815Z,2.50
2018-07-03T14:52:36.623Z,2.35
2018-07-03T14:55:05.440Z,2.17
2018-07-03T14:57:34.387Z,2.20
2018-07-03T15:00:03.192Z,2.40
2018-07-03T15:02:31.990Z,2.20
2018-07-03T15:05:00.780Z,2.60
2018-07-03T15:07:29.572Z,2.42
2018-07-03T15:09:58.456Z,2.33
2018-07-03T15:12:27.216Z,2.37
2018-07-03T15:14:56.005Z,2.45
2018-07-03T15:17:24.781Z,2.40
2018-07-03T15:19:57.587Z,2.20
2018-07-03T15:22:26.351Z,2.20
2018-07-03T15:24:55.155Z,2.42
2018-07-03T15:27:23.917Z,2.35
2018-07-03T15:29:52.732Z,2.70
2018-07-03T15:32:21.516Z,2.10
2018-07-03T15:34:50.289Z,2.50
2018-07-03T15:37:19.059Z,2.45
2018-07-03T15:39:47.909Z,2.40
2018-07-03T15:42:16.656Z,2.20
2018-07-03T15:44:56.916Z,2.47
2018-07-03T15:47:25.664Z,2.40
2018-07-03T15:49:54.462Z,2.33
2018-07-03T15:52:23.237Z,2.22
2018-07-03T15:54:52.015Z,2.58
2018-07-03T15:57:20.780Z,2.58
2018-07-03T15:59:49.549Z,3.05
2018-07-03T16:02:18.377Z,2.52
2018-07-03T16:05:08.557Z,2.37
2018-07-03T16:09:53.232Z,2.70
2018-07-03T16:12:22.085Z,2.50
2018-07-03T16:14:50.759Z,2.30
2018-07-03T16:17:19.554Z,2.55
2018-07-03T16:20:55.456Z,2.50
2018-07-03T16:23:24.204Z,2.87
2018-07-03T16:25:52.984Z,2.47
2018-07-03T16:28:21.790Z,2.58
2018-07-03T16:30:50.583Z,3.00
2018-07-03T16:33:19.442Z,2.67
2018-07-03T16:35:48.153Z,2.80
2018-07-03T16:38:16.908Z,2.83
2018-07-03T16:40:45.683Z,2.47
2018-07-03T16:43:14.448Z,2.30
2018-07-03T16:45:43.252Z,2.52
2018-07-03T16:48:11.809Z,2.50
2018-07-03T16:50:40.525Z,2.90
2018-07-03T16:53:09.289Z,2.22
2018-07-03T16:55:38.082Z,2.45
2018-07-03T16:58:06.873Z,2.45
2018-07-03T17:00:35.646Z,2.70
2018-07-03T17:03:04.437Z,2.37
2018-07-03T17:05:33.226Z,2.30
2018-07-03T17:08:01.981Z,2.55
2018-07-03T17:10:30.752Z,2.60
2018-07-03T17:12:59.779Z,2.70
2018-07-03T17:15:28.540Z,2.80
2018-07-03T17:17:57.320Z,2.60
2018-07-03T17:20:26.079Z,2.70
2018-07-03T17:22:55.183Z,2.70
2018-07-03T17:25:23.991Z,2.90
2018-07-03T17:27:52.873Z,2.67
2018-07-03T17:30:21.659Z,2.75
2018-07-03T17:32:50.579Z,2.72
2018-07-03T17:35:19.380Z,2.40
2018-07-03T17:37:48.158Z,2.55
2018-07-03T17:40:28.439Z,2.75
2018-07-03T17:44:08.625Z,2.72
2018-07-03T17:46:37.398Z,2.67
2018-07-03T17:49:06.335Z,2.93
2018-07-03T17:51:35.200Z,2.90
2018-07-03T17:54:04.149Z,2.80
2018-07-03T17:56:32.936Z,2.50
2018-07-03T17:59:01.976Z,2.50
2018-07-03T18:01:30.572Z,2.47
2018-07-03T18:03:59.360Z,2.50
2018-07-03T18:06:28.151Z,2.33
2018-07-03T18:08:56.919Z,2.23
2018-07-03T18:11:25.775Z,2.50
2018-07-03T18:13:54.747Z,2.70
2018-07-03T18:16:23.627Z,2.80
2018-07-03T18:18:57.929Z,3.33
2018-07-03T18:21:26.723Z,2.83
2018-07-03T18:26:26.384Z,2.30
2018-07-03T18:28:55.233Z,2.40
2018-07-03T18:31:24.103Z,3.80
2018-07-03T18:33:53.037Z,2.60
2018-07-03T18:36:23.931Z,2.33
2018-07-03T18:38:52.764Z,2.50
2018-07-03T18:41:21.615Z,2.80
2018-07-03T18:43:50.469Z,2.60
2018-07-03T18:46:19.332Z,2.40
2018-07-03T18:48:48.228Z,2.60
2018-07-03T18:51:17.131Z,2.73
2018-07-03T18:53:45.900Z,2.40
2018-07-03T18:56:14.806Z,2.47
2018-07-03T18:58:43.691Z,2.60
2018-07-03T19:01:12.533Z,2.60
2018-07-03T19:03:41.655Z,2.33
2018-07-03T19:06:10.455Z,2.97
2018-07-03T19:08:39.247Z,3.00
2018-07-03T19:11:08.155Z,3.20
2018-07-03T19:13:36.923Z,3.00
2018-07-03T19:16:05.706Z,4.17
2018-07-03T19:18:34.530Z,2.90
2018-07-03T19:21:03.564Z,2.90
2018-07-03T19:23:32.365Z,2.60
2018-07-03T19:26:01.151Z,2.70
2018-07-03T19:28:29.954Z,2.77
2018-07-03T19:30:58.731Z,2.37
2018-07-03T19:33:27.531Z,2.60
2018-07-03T19:35:56.439Z,2.70
2018-07-03T19:38:25.216Z,2.80
2018-07-03T19:40:54.003Z,2.63
2018-07-03T19:43:25.296Z,2.60
2018-07-03T19:45:54.438Z,2.53
2018-07-03T19:48:23.226Z,2.60
2018-07-03T19:50:52.694Z,3.10
2018-07-03T19:53:23.783Z,2.67
2018-07-03T19:55:53.888Z,3.23
2018-07-03T19:58:22.934Z,3.10
2018-07-03T20:00:52.956Z,3.10
2018-07-03T20:03:21.763Z,3.13
2018-07-03T20:05:50.569Z,3.10
2018-07-03T20:08:19.363Z,2.80
2018-07-03T20:10:48.180Z,2.77
2018-07-03T20:13:18.026Z,3.60
2018-07-03T20:15:46.949Z,3.40
2018-07-03T20:18:16.423Z,3.70
2018-07-03T20:20:45.235Z,3.40
2018-07-03T20:23:14.036Z,3.20
2018-07-03T20:26:46.810Z,3.30
2018-07-03T20:29:15.594Z,3.00
2018-07-03T20:31:44.411Z,3.13
2018-07-03T20:34:13.299Z,3.40
2018-07-03T20:36:42.207Z,3.53
2018-07-03T20:39:11.575Z,3.27
2018-07-03T20:41:40.492Z,2.90
2018-07-03T20:44:09.292Z,3.13
2018-07-03T20:46:38.096Z,2.93
2018-07-03T20:49:07.553Z,3.00
2018-07-03T20:51:36.348Z,3.10
2018-07-03T20:54:05.155Z,3.20
2018-07-03T20:56:34.035Z,3.00
2018-07-03T20:59:04.425Z,2.90
2018-07-03T21:01:33.373Z,2.90
2018-07-03T21:04:02.341Z,3.00
2018-07-03T21:06:31.196Z,3.00
2018-07-03T21:09:00.023Z,2.90
2018-07-03T21:11:28.999Z,3.00
2018-07-03T21:13:57.810Z,2.63
2018-07-03T21:16:27.276Z,2.67
2018-07-03T21:18:56.099Z,2.60
2018-07-03T21:21:24.967Z,3.03
2018-07-03T21:23:54.586Z,2.53
2018-07-03T21:26:23.450Z,3.00
2018-07-03T21:28:52.224Z,3.00
2018-07-03T21:31:21.056Z,2.73
2018-07-03T21:33:49.993Z,2.87
2018-07-03T21:36:18.858Z,2.90
2018-07-03T21:38:47.890Z,3.00
2018-07-03T21:41:16.675Z,2.67
2018-07-03T21:43:45.541Z,2.87
2018-07-03T21:46:15.491Z,2.90
2018-07-03T21:48:44.417Z,2.80
2018-07-03T21:51:13.255Z,2.70
2018-07-03T21:53:42.344Z,2.53
2018-07-03T21:56:11.327Z,3.20
2018-07-03T21:58:40.224Z,2.80
2018-07-03T22:01:09.053Z,3.27
2018-07-03T22:03:37.904Z,2.80
2018-07-03T22:06:06.942Z,3.00
2018-07-03T22:08:36.001Z,2.63
2018-07-03T22:11:04.923Z,2.80
2018-07-03T22:13:33.670Z,2.57
2018-07-03T22:16:02.416Z,2.77
2018-07-03T22:18:31.321Z,2.80
2018-07-03T22:21:00.296Z,2.97
2018-07-03T22:23:29.179Z,2.90
2018-07-03T22:25:58.240Z,2.93
2018-07-03T22:28:27.309Z,2.80
2018-07-03T22:30:56.163Z,2.70
2018-07-03T22:33:25.070Z,2.80
2018-07-03T22:35:54.289Z,2.90
2018-07-03T22:38:23.175Z,2.80
2018-07-03T22:40:52.088Z,2.73
2018-07-03T22:43:20.712Z,2.50
2018-07-03T22:45:49.627Z,2.67
2018-07-03T22:48:18.536Z,2.90
2018-07-03T22:50:47.476Z,3.00
2018-07-03T22:53:16.446Z,3.20
2018-07-03T22:55:45.949Z,2.73
2018-07-03T22:58:15.084Z,2.80
2018-07-03T23:00:44.473Z,2.90
2018-07-03T23:03:13.535Z,2.80
2018-07-03T23:05:42.138Z,2.63
2018-07-03T23:08:11.183Z,2.87
2018-07-03T23:10:40.011Z,2.80
2018-07-03T23:13:08.872Z,2.70
2018-07-03T23:15:37.775Z,2.50
2018-07-03T23:18:06.780Z,2.70
2018-07-03T23:20:35.917Z,3.00
2018-07-03T23:23:04.864Z,2.70
2018-07-03T23:25:33.454Z,2.70
2018-07-03T23:28:02.457Z,2.97
2018-07-03T23:30:31.988Z,3.30
2018-07-03T23:33:00.961Z,3.93
2018-07-03T23:35:30.066Z,2.90
2018-07-03T23:37:59.291Z,3.23
2018-07-03T23:40:28.256Z,2.80
2018-07-03T23:42:57.274Z,2.63
2018-07-03T23:45:30.938Z,3.00
2018-07-03T23:48:11.285Z,2.70
2018-07-03T23:50:51.328Z,2.67
2018-07-03T23:53:31.541Z,3.20
2018-07-03T23:56:11.616Z,2.90
2018-07-03T23:58:51.725Z,2.80
